Time;durP1;ratioP1;P1;durP2;ratioP2;P2;SDS_P1;SDS_P2;PMS_P1;PMS_P2;Temp;Humidity;BMP_temperature;BMP_pressure;BME280_temperature;BME280_humidity;BME280_pressure;Samples;Min_cycle;Max_cycle;Signal;HPM_P1;HPM_P2
2023/02/09 00:00:24;;;;;;;;;;;;;;;;;;4977370;28;20536;-72
2023/02/09 00:02:50;;;;;;;;;;;;;;;;;;4983201;28;19944;-72
2023/02/09 00:05:16;;;;;;;;;;;;;;;;;;4964322;28;20268;-72
2023/02/09 00:07:42;;;;;;;;;;;;;;;;;;4963440;28;20403;-72
2023/02/09 00:10:08;;;;;;;;;;;;;;;;;;4977678;28;19955;-72
2023/02/09 00:15:19;;;;;;;;;;;;;;;;;;4976512;28;19954;-73
2023/02/09 00:17:44;;;;;;;;;;;;;;;;;;4979425;28;19925;-73
2023/02/09 00:20:10;;;;;;;;;;;;;;;;;;4960539;28;19913;-73
2023/02/09 00:22:36;;;;;;;;;;;;;;;;;;4960838;28;20778;-73
2023/02/09 00:25:02;;;;;;;;;;;;;;;;;;4982722;28;19920;-73
2023/02/09 00:27:28;;;;;;;;;;;;;;;;;;4981218;28;19917;-73
2023/02/09 00:29:54;;;;;;;;;;;;;;;;;;4977843;28;19913;-73
2023/02/09 00:32:20;;;;;;;;;;;;;;;;;;4982525;28;20028;-73
2023/02/09 00:34:46;;;;;;;;;;;;;;;;;;4986765;28;20222;-73
2023/02/09 00:37:12;;;;;;;;;;;;;;;;;;4981432;28;20539;-73
2023/02/09 00:39:38;;;;;;;;;;;;;;;;;;4967383;28;19959;-73
2023/02/09 00:42:09;;;;;;;;;;;;;;;;;;4982366;28;20427;-73
2023/02/09 00:44:35;;;;;;;;;;;;;;;;;;4985447;28;20229;-74
2023/02/09 00:47:01;;;;;;;;;;;;;;;;;;4980887;28;20673;-73
2023/02/09 00:49:27;;;;;;;;;;;;;;;;;;4964220;28;19917;-73
2023/02/09 00:51:53;;;;;;;;;;;;;;;;;;4963332;28;19920;-72
2023/02/09 00:54:19;;;;;;;;;;;;;;;;;;4981228;28;19917;-73
2023/02/09 00:56:45;;;;;;;;;;;;;;;;;;4968674;28;20020;-73
2023/02/09 00:59:11;;;;;;;;;;;;;;;;;;4983353;28;20458;-73
2023/02/09 01:01:37;;;;;;;;;;;;;;;;;;4967420;28;19920;-73
2023/02/09 01:04:03;;;;;;;;;;;;;;;;;;4982587;28;19918;-73
2023/02/09 01:06:29;;;;;;;;;;;;;;;;;;4963375;28;19936;-73
2023/02/09 01:08:55;;;;;;;;;;;;;;;;;;4984410;28;20004;-73
2023/02/09 01:11:21;;;;;;;;;;;;;;;;;;4961368;28;20223;-73
2023/02/09 01:13:47;;;;;;;;;;;;;;;;;;4967131;28;20362;-73
2023/02/09 01:16:13;;;;;;;;;;;;;;;;;;4982868;28;20181;-73
2023/02/09 01:18:39;;;;;;;;;;;;;;;;;;4983174;28;20466;-72
2023/02/09 01:21:05;;;;;;;;;;;;;;;;;;4982080;28;20361;-73
2023/02/09 01:23:31;;;;;;;;;;;;;;;;;;4963081;28;19965;-72
2023/02/09 01:25:57;;;;;;;;;;;;;;;;;;4979375;28;20036;-72
2023/02/09 01:28:23;;;;;;;;;;;;;;;;;;4985257;28;19917;-72
2023/02/09 01:30:49;;;;;;;;;;;;;;;;;;4967422;28;20421;-72
2023/02/09 01:33:15;;;;;;;;;;;;;;;;;;4963151;28;19920;-72
2023/02/09 01:35:41;;;;;;;;;;;;;;;;;;4983888;28;19920;-72
2023/02/09 01:38:07;;;;;;;;;;;;;;;;;;4984182;28;19925;-72
2023/02/09 01:40:33;;;;;;;;;;;;;;;;;;4985834;28;19913;-72
2023/02/09 01:42:59;;;;;;;;;;;;;;;;;;4982034;28;19920;-71
2023/02/09 01:45:25;;;;;;;;;;;;;;;;;;4980534;28;22726;-72
2023/02/09 01:47:51;;;;;;;;;;;;;;;;;;4983134;28;19922;-72
2023/02/09 01:50:17;;;;;;;;;;;;;;;;;;4978995;28;19913;-72
2023/02/09 01:52:43;;;;;;;;;;;;;;;;;;4984736;28;20706;-72
2023/02/09 01:55:09;;;;;;;;;;;;;;;;;;4983439;28;19960;-71
2023/02/09 01:57:35;;;;;;;;;;;;;;;;;;4985360;28;20264;-72
2023/02/09 02:00:01;;;;;;;;;;;;;;;;;;4983807;28;19924;-72
2023/02/09 02:02:27;;;;;;;;;;;;;;;;;;4979628;28;20345;-72
2023/02/09 02:04:53;;;;;;;;;;;;;;;;;;4961933;28;20995;-72
2023/02/09 02:07:19;;;;;;;;;;;;;;;;;;4964073;28;19917;-72
2023/02/09 02:09:45;;;;;;;;;;;;;;;;;;4968491;28;19925;-72
2023/02/09 02:12:11;;;;;;;;;;;;;;;;;;4982022;28;20439;-72
2023/02/09 02:14:37;;;;;;;;;;;;;;;;;;4982923;28;19913;-72
2023/02/09 02:17:03;;;;;;;;;;;;;;;;;;4980284;28;20288;-72
2023/02/09 02:19:29;;;;;;;;;;;;;;;;;;4980621;28;19917;-72
2023/02/09 02:21:55;;;;;;;;;;;;;;;;;;4965579;28;20225;-72
2023/02/09 02:24:21;;;;;;;;;;;;;;;;;;4982376;28;20015;-72
2023/02/09 02:26:47;;;;;;;;;;;;;;;;;;4984752;28;19972;-71
2023/02/09 02:29:13;;;;;;;;;;;;;;;;;;4962065;28;19953;-72
2023/02/09 02:31:39;;;;;;;;;;;;;;;;;;4982604;28;19916;-72
2023/02/09 02:34:05;;;;;;;;;;;;;;;;;;4985623;28;20311;-72
2023/02/09 02:36:31;;;;;;;;;;;;;;;;;;4964435;28;19921;-72
2023/02/09 02:38:57;;;;;;;;;;;;;;;;;;4983877;28;19967;-72
2023/02/09 02:41:23;;;;;;;;;;;;;;;;;;4980229;28;20162;-72
2023/02/09 02:43:49;;;;;;;;;;;;;;;;;;4964735;28;19913;-71
2023/02/09 02:46:15;;;;;;;;;;;;;;;;;;4979783;28;19920;-71
2023/02/09 02:48:41;;;;;;;;;;;;;;;;;;4981698;28;19985;-72
2023/02/09 02:51:07;;;;;;;;;;;;;;;;;;4982225;28;19940;-71
2023/02/09 02:53:33;;;;;;;;;;;;;;;;;;4981413;28;19943;-72
2023/02/09 02:55:59;;;;;;;;;;;;;;;;;;4984054;28;20008;-72
2023/02/09 02:58:25;;;;;;;;;;;;;;;;;;4981170;28;19919;-74
2023/02/09 03:00:51;;;;;;;;;;;;;;;;;;4982920;28;19917;-72
2023/02/09 03:03:18;;;;;;;;;;;;;;;;;;4963620;28;20512;-71
2023/02/09 03:05:44;;;;;;;;;;;;;;;;;;4964837;28;20358;-71
2023/02/09 03:08:10;;;;;;;;;;;;;;;;;;4978747;28;19968;-71
2023/02/09 03:10:36;;;;;;;;;;;;;;;;;;4961006;28;19931;-72
2023/02/09 03:13:02;;;;;;;;;;;;;;;;;;4980735;28;20000;-72
2023/02/09 03:15:28;;;;;;;;;;;;;;;;;;4962687;28;20019;-72
2023/02/09 03:17:54;;;;;;;;;;;;;;;;;;4965084;28;19929;-72
2023/02/09 03:20:20;;;;;;;;;;;;;;;;;;4977586;28;19917;-72
2023/02/09 03:22:46;;;;;;;;;;;;;;;;;;4982769;28;19917;-72
2023/02/09 03:25:12;;;;;;;;;;;;;;;;;;4961819;28;19924;-72
2023/02/09 03:27:38;;;;;;;;;;;;;;;;;;4983190;28;19928;-72
2023/02/09 03:30:04;;;;;;;;;;;;;;;;;;4965763;28;19913;-72
2023/02/09 03:32:30;;;;;;;;;;;;;;;;;;4962766;28;20402;-72
2023/02/09 03:34:56;;;;;;;;;;;;;;;;;;4982057;28;19917;-72
2023/02/09 03:37:22;;;;;;;;;;;;;;;;;;4978390;28;20464;-72
2023/02/09 03:39:48;;;;;;;;;;;;;;;;;;4964838;28;20364;-72
2023/02/09 03:42:14;;;;;;;;;;;;;;;;;;4961580;28;19909;-72
2023/02/09 03:44:40;;;;;;;;;;;;;;;;;;4964590;28;20032;-72
2023/02/09 03:47:06;;;;;;;;;;;;;;;;;;4981092;28;19960;-72
2023/02/09 03:49:32;;;;;;;;;;;;;;;;;;4982959;28;20335;-72
2023/02/09 03:52:01;;;;;;;;;;;;;;;;;;4965494;28;19967;-72
2023/02/09 03:54:27;;;;;;;;;;;;;;;;;;4979029;28;20003;-72
2023/02/09 03:56:53;;;;;;;;;;;;;;;;;;4979751;28;20287;-72
2023/02/09 03:59:20;;;;;;;;;;;;;;;;;;4978512;28;20719;-71
2023/02/09 04:01:46;;;;;;;;;;;;;;;;;;4984824;28;19913;-72
2023/02/09 04:04:12;;;;;;;;;;;;;;;;;;4982353;28;19913;-72
2023/02/09 04:06:38;;;;;;;;;;;;;;;;;;4987362;28;19924;-72
2023/02/09 04:09:04;;;;;;;;;;;;;;;;;;4984668;28;20430;-72
2023/02/09 04:11:30;;;;;;;;;;;;;;;;;;4968325;28;19968;-73
2023/02/09 04:13:56;;;;;;;;;;;;;;;;;;4966167;28;19913;-72
2023/02/09 04:16:22;;;;;;;;;;;;;;;;;;4984013;28;19921;-72
2023/02/09 04:18:48;;;;;;;;;;;;;;;;;;4986217;28;20393;-71
2023/02/09 04:21:14;;;;;;;;;;;;;;;;;;4983156;28;20309;-72
2023/02/09 04:23:40;;;;;;;;;;;;;;;;;;4971148;28;19914;-72
2023/02/09 04:26:06;;;;;;;;;;;;;;;;;;4984328;28;19920;-71
2023/02/09 04:28:32;;;;;;;;;;;;;;;;;;4969286;28;20226;-72
2023/02/09 04:30:58;;;;;;;;;;;;;;;;;;4967114;28;20365;-72
2023/02/09 04:33:24;;;;;;;;;;;;;;;;;;4964606;28;19913;-72
2023/02/09 04:35:50;;;;;;;;;;;;;;;;;;4984165;28;20473;-72
2023/02/09 04:38:18;;;;;;;;;;;;;;;;;;4967007;28;19920;-72
2023/02/09 04:40:44;;;;;;;;;;;;;;;;;;4966776;28;20094;-71
2023/02/09 04:43:10;;;;;;;;;;;;;;;;;;4981409;28;19913;-72
2023/02/09 04:45:36;;;;;;;;;;;;;;;;;;4965406;28;19951;-71
2023/02/09 04:48:02;;;;;;;;;;;;;;;;;;4964102;28;20331;-72
2023/02/09 04:50:28;;;;;;;;;;;;;;;;;;4968251;28;19918;-72
2023/02/09 04:52:54;;;;;;;;;;;;;;;;;;4966273;28;19957;-72
2023/02/09 04:55:20;;;;;;;;;;;;;;;;;;4984388;28;20427;-71
2023/02/09 05:00:30;;;;;;;;;;;;;;;;;;4981535;28;19919;-72
2023/02/09 05:02:56;;;;;;;;;;;;;;;;;;4986353;28;19910;-71
2023/02/09 05:05:22;;;;;;;;;;;;;;;;;;4981390;28;19924;-72
2023/02/09 05:07:48;;;;;;;;;;;;;;;;;;4982793;28;20282;-72
2023/02/09 05:10:14;;;;;;;;;;;;;;;;;;4980139;28;19920;-72
2023/02/09 05:12:40;;;;;;;;;;;;;;;;;;4986486;28;19913;-72
2023/02/09 05:15:06;;;;;;;;;;;;;;;;;;4983233;28;19914;-71
2023/02/09 05:17:32;;;;;;;;;;;;;;;;;;4966593;28;20016;-72
2023/02/09 05:19:58;;;;;;;;;;;;;;;;;;4985092;28;20329;-73
2023/02/09 05:22:24;;;;;;;;;;;;;;;;;;4984273;28;20694;-74
2023/02/09 05:24:50;;;;;;;;;;;;;;;;;;4968520;28;19909;-74
2023/02/09 05:27:16;;;;;;;;;;;;;;;;;;4964452;28;19929;-72
2023/02/09 05:29:42;;;;;;;;;;;;;;;;;;4984839;28;19918;-71
2023/02/09 05:32:08;;;;;;;;;;;;;;;;;;4981664;28;20276;-72
2023/02/09 05:34:34;;;;;;;;;;;;;;;;;;4983881;28;19917;-71
2023/02/09 05:37:00;;;;;;;;;;;;;;;;;;4967510;28;19914;-72
2023/02/09 05:39:26;;;;;;;;;;;;;;;;;;4983354;28;20524;-72
2023/02/09 05:44:37;;;;;;;;;;;;;;;;;;4983289;28;20023;-73
2023/02/09 05:47:03;;;;;;;;;;;;;;;;;;4963223;28;20348;-72
2023/02/09 05:49:29;;;;;;;;;;;;;;;;;;4982653;28;20564;-72
2023/02/09 05:51:55;;;;;;;;;;;;;;;;;;4965369;28;20362;-72
2023/02/09 05:54:21;;;;;;;;;;;;;;;;;;4963971;28;19975;-72
2023/02/09 05:56:46;;;;;;;;;;;;;;;;;;4965649;28;20388;-72
2023/02/09 05:59:12;;;;;;;;;;;;;;;;;;4981724;28;19917;-72
2023/02/09 06:01:39;;;;;;;;;;;;;;;;;;4966543;28;19924;-72
2023/02/09 06:04:04;;;;;;;;;;;;;;;;;;4984801;28;20325;-72
2023/02/09 06:06:30;;;;;;;;;;;;;;;;;;4965942;28;19917;-72
2023/02/09 06:08:56;;;;;;;;;;;;;;;;;;4967671;28;19946;-72
2023/02/09 06:11:22;;;;;;;;;;;;;;;;;;4981657;28;20173;-73
2023/02/09 06:13:48;;;;;;;;;;;;;;;;;;4981856;28;20438;-72
2023/02/09 06:16:14;;;;;;;;;;;;;;;;;;4979924;28;19964;-71
2023/02/09 06:18:40;;;;;;;;;;;;;;;;;;4984496;28;19922;-74
2023/02/09 06:21:06;;;;;;;;;;;;;;;;;;4965141;28;19920;-72
2023/02/09 06:23:32;;;;;;;;;;;;;;;;;;4984036;28;19925;-72
2023/02/09 06:25:58;;;;;;;;;;;;;;;;;;4984670;28;19917;-72
2023/02/09 06:28:24;;;;;;;;;;;;;;;;;;4966695;28;20613;-72
2023/02/09 06:30:50;;;;;;;;;;;;;;;;;;4962502;28;20387;-73
2023/02/09 06:33:16;;;;;;;;;;;;;;;;;;4982257;28;19913;-72
2023/02/09 06:35:42;;;;;;;;;;;;;;;;;;4965681;28;19917;-72
2023/02/09 06:38:08;;;;;;;;;;;;;;;;;;4973907;28;20326;-72
2023/02/09 06:40:34;;;;;;;;;;;;;;;;;;4984214;28;19917;-72
2023/02/09 06:43:00;;;;;;;;;;;;;;;;;;4980631;28;19966;-71
2023/02/09 06:45:26;;;;;;;;;;;;;;;;;;4978236;28;20193;-72
2023/02/09 06:47:52;;;;;;;;;;;;;;;;;;4984769;28;20039;-73
2023/02/09 06:50:18;;;;;;;;;;;;;;;;;;4978016;28;20231;-73
2023/02/09 06:52:44;;;;;;;;;;;;;;;;;;4983791;28;19916;-72
2023/02/09 06:55:10;;;;;;;;;;;;;;;;;;4980585;28;20231;-72
2023/02/09 06:57:36;;;;;;;;;;;;;;;;;;4982365;28;20352;-72
2023/02/09 07:00:03;;;;;;;;;;;;;;;;;;4982368;28;19913;-73
2023/02/09 07:02:29;;;;;;;;;;;;;;;;;;4960108;28;20612;-72
2023/02/09 07:04:56;;;;;;;;;;;;;;;;;;4963188;28;19921;-73
2023/02/09 07:07:22;;;;;;;;;;;;;;;;;;4962208;28;20027;-72
2023/02/09 07:09:48;;;;;;;;;;;;;;;;;;4966719;28;20339;-73
2023/02/09 07:12:14;;;;;;;;;;;;;;;;;;4981211;28;20255;-72
2023/02/09 07:14:40;;;;;;;;;;;;;;;;;;4982601;28;20525;-73
2023/02/09 07:17:06;;;;;;;;;;;;;;;;;;4983982;28;19921;-72
2023/02/09 07:19:32;;;;;;;;;;;;;;;;;;4965337;28;19923;-73
2023/02/09 07:21:58;;;;;;;;;;;;;;;;;;4983767;28;19920;-72
2023/02/09 07:24:24;;;;;;;;;;;;;;;;;;4979759;28;19999;-72
2023/02/09 07:26:50;;;;;;;;;;;;;;;;;;4980782;28;20390;-72
2023/02/09 07:29:16;;;;;;;;;;;;;;;;;;4964679;28;19961;-72
2023/02/09 07:31:42;;;;;;;;;;;;;;;;;;4981891;28;19935;-72
2023/02/09 07:34:07;;;;;;;;;;;;;;;;;;4980731;28;19960;-72
2023/02/09 07:36:33;;;;;;;;;;;;;;;;;;4988679;28;20106;-73
2023/02/09 07:38:59;;;;;;;;;;;;;;;;;;4968186;28;19920;-71
2023/02/09 07:41:26;;;;;;;;;;;;;;;;;;4984823;28;20022;-73
2023/02/09 07:43:52;;;;;;;;;;;;;;;;;;4986139;28;19920;-72
2023/02/09 07:46:18;;;;;;;;;;;;;;;;;;4984935;28;19913;-76
2023/02/09 07:48:44;;;;;;;;;;;;;;;;;;4984144;28;19972;-71
2023/02/09 07:51:10;;;;;;;;;;;;;;;;;;4964484;28;19913;-73
2023/02/09 07:53:36;;;;;;;;;;;;;;;;;;4981332;28;20449;-73
2023/02/09 07:56:02;;;;;;;;;;;;;;;;;;4985880;28;19951;-73
2023/02/09 07:58:28;;;;;;;;;;;;;;;;;;4965135;28;20167;-73
2023/02/09 08:00:54;;;;;;;;;;;;;;;;;;4984547;28;20307;-73
2023/02/09 08:03:20;;;;;;;;;;;;;;;;;;4983282;28;19956;-73
2023/02/09 08:05:46;;;;;;;;;;;;;;;;;;4984513;28;20021;-73
2023/02/09 08:08:12;;;;;;;;;;;;;;;;;;4965466;28;19951;-73
2023/02/09 08:10:38;;;;;;;;;;;;;;;;;;4986449;28;20439;-73
2023/02/09 08:13:04;;;;;;;;;;;;;;;;;;4986272;28;20159;-73
2023/02/09 08:15:30;;;;;;;;;;;;;;;;;;4982639;28;19914;-73
2023/02/09 08:17:56;;;;;;;;;;;;;;;;;;4985886;28;19936;-74
2023/02/09 08:20:22;;;;;;;;;;;;;;;;;;4983903;28;20226;-73
2023/02/09 08:22:48;;;;;;;;;;;;;;;;;;4984797;28;19921;-74
2023/02/09 08:25:14;;;;;;;;;;;;;;;;;;4968316;28;20045;-73
2023/02/09 08:27:42;;;;;;;;;;;;;;;;;;4984642;28;19925;-74
2023/02/09 08:30:08;;;;;;;;;;;;;;;;;;4980254;28;19921;-73
2023/02/09 08:32:34;;;;;;;;;;;;;;;;;;4969603;28;19998;-73
2023/02/09 08:34:59;;;;;;;;;;;;;;;;;;4984164;28;19913;-73
2023/02/09 08:37:25;;;;;;;;;;;;;;;;;;4981300;28;20238;-74
2023/02/09 08:39:51;;;;;;;;;;;;;;;;;;4986105;28;19967;-73
2023/02/09 08:42:17;;;;;;;;;;;;;;;;;;4965351;28;19913;-73
2023/02/09 08:44:43;;;;;;;;;;;;;;;;;;4985528;28;19914;-71
2023/02/09 08:47:09;;;;;;;;;;;;;;;;;;4980693;28;20322;-74
2023/02/09 08:49:35;;;;;;;;;;;;;;;;;;4980747;28;19918;-72
2023/02/09 08:52:01;;;;;;;;;;;;;;;;;;4984999;28;19921;-73
2023/02/09 08:54:27;;;;;;;;;;;;;;;;;;4981798;28;19917;-73
2023/02/09 08:56:53;;;;;;;;;;;;;;;;;;4985758;28;19913;-72
2023/02/09 08:59:20;;;;;;;;;;;;;;;;;;4965918;28;20704;-73
2023/02/09 09:01:46;;;;;;;;;;;;;;;;;;4985846;28;20595;-73
2023/02/09 09:04:12;;;;;;;;;;;;;;;;;;4980303;28;19913;-73
2023/02/09 09:06:38;;;;;;;;;;;;;;;;;;4983735;28;19991;-72
2023/02/09 09:09:04;;;;;;;;;;;;;;;;;;4985514;28;20356;-73
2023/02/09 09:11:30;;;;;;;;;;;;;;;;;;4981882;28;19917;-73
2023/02/09 09:13:56;;;;;;;;;;;;;;;;;;4983243;28;20357;-73
2023/02/09 09:16:22;;;;;;;;;;;;;;;;;;4978900;28;20044;-72
2023/02/09 09:18:48;;;;;;;;;;;;;;;;;;4982758;28;20458;-73
2023/02/09 09:21:14;;;;;;;;;;;;;;;;;;4983322;28;19913;-73
2023/02/09 09:23:40;;;;;;;;;;;;;;;;;;4966901;28;19913;-73
2023/02/09 09:26:06;;;;;;;;;;;;;;;;;;4983765;28;19967;-74
2023/02/09 09:28:32;;;;;;;;;;;;;;;;;;4963599;28;19995;-74
2023/02/09 09:31:04;;;;;;;;;;;;;;;;;;4985273;28;20011;-74
2023/02/09 09:33:30;;;;;;;;;;;;;;;;;;4979737;28;19913;-74
2023/02/09 09:35:56;;;;;;;;;;;;;;;;;;4983427;28;20386;-74
2023/02/09 09:38:22;;;;;;;;;;;;;;;;;;4980416;28;19913;-74
2023/02/09 09:40:48;;;;;;;;;;;;;;;;;;4983385;28;19991;-74
2023/02/09 09:43:14;;;;;;;;;;;;;;;;;;4982635;28;20316;-74
2023/02/09 09:45:40;;;;;;;;;;;;;;;;;;4963461;28;20055;-74
2023/02/09 09:48:06;;;;;;;;;;;;;;;;;;4983063;28;19975;-74
2023/02/09 09:50:32;;;;;;;;;;;;;;;;;;4984911;28;19913;-74
2023/02/09 09:52:58;;;;;;;;;;;;;;;;;;4982134;28;19917;-74
2023/02/09 09:55:24;;;;;;;;;;;;;;;;;;4981478;28;20371;-73
2023/02/09 09:57:50;;;;;;;;;;;;;;;;;;4962879;28;19917;-73
2023/02/09 10:00:16;;;;;;;;;;;;;;;;;;4960137;28;19921;-73
2023/02/09 10:02:43;;;;;;;;;;;;;;;;;;4964307;28;20420;-73
2023/02/09 10:05:09;;;;;;;;;;;;;;;;;;4980974;28;19930;-74
2023/02/09 10:07:35;;;;;;;;;;;;;;;;;;4983760;28;20981;-74
2023/02/09 10:10:01;;;;;;;;;;;;;;;;;;4966015;28;20011;-73
2023/02/09 10:12:27;;;;;;;;;;;;;;;;;;4963526;28;19939;-74
2023/02/09 10:14:53;;;;;;;;;;;;;;;;;;4982039;28;19920;-75
2023/02/09 10:17:18;;;;;;;;;;;;;;;;;;4982842;28;20599;-74
2023/02/09 10:19:44;;;;;;;;;;;;;;;;;;4981437;28;19917;-74
2023/02/09 10:22:11;;;;;;;;;;;;;;;;;;4983148;28;19921;-73
2023/02/09 10:24:38;;;;;;;;;;;;;;;;;;4983111;28;19921;-74
2023/02/09 10:27:04;;;;;;;;;;;;;;;;;;4969493;28;19917;-72
2023/02/09 10:29:30;;;;;;;;;;;;;;;;;;4958811;28;19971;-75
2023/02/09 10:31:56;;;;;;;;;;;;;;;;;;4984302;28;19913;-76
2023/02/09 10:34:22;;;;;;;;;;;;;;;;;;4980416;28;19913;-76
2023/02/09 10:36:48;;;;;;;;;;;;;;;;;;4983026;28;19967;-76
2023/02/09 10:39:14;;;;;;;;;;;;;;;;;;4981366;28;20343;-76
2023/02/09 10:41:40;;;;;;;;;;;;;;;;;;4984245;28;19933;-76
2023/02/09 10:44:06;;;;;;;;;;;;;;;;;;4979746;28;19910;-75
2023/02/09 10:46:32;;;;;;;;;;;;;;;;;;4965338;28;19920;-76
2023/02/09 10:48:58;;;;;;;;;;;;;;;;;;4965485;28;19921;-76
2023/02/09 10:51:28;;;;;;;;;;;;;;;;;;4967470;28;20260;-75
2023/02/09 10:53:54;;;;;;;;;;;;;;;;;;4963445;28;19960;-79
2023/02/09 10:56:19;;;;;;;;;;;;;;;;;;4976502;28;19936;-79
2023/02/09 10:58:45;;;;;;;;;;;;;;;;;;4980150;28;19967;-65
2023/02/09 11:01:11;;;;;;;;;;;;;;;;;;4980250;28;19929;-65
2023/02/09 11:03:37;;;;;;;;;;;;;;;;;;4983385;28;20533;-68
2023/02/09 11:06:03;;;;;;;;;;;;;;;;;;4984427;28;19913;-66
2023/02/09 11:08:30;;;;;;;;;;;;;;;;;;4978441;28;19921;-65
2023/02/09 11:10:56;;;;;;;;;;;;;;;;;;4981748;28;19924;-66
2023/02/09 11:13:22;;;;;;;;;;;;;;;;;;4978990;28;19913;-66
2023/02/09 11:15:48;;;;;;;;;;;;;;;;;;4982748;28;20463;-66
2023/02/09 11:18:14;;;;;;;;;;;;;;;;;;4981122;28;20145;-66
2023/02/09 11:20:40;;;;;;;;;;;;;;;;;;4980641;28;19921;-66
2023/02/09 11:23:06;;;;;;;;;;;;;;;;;;4981318;28;19914;-66
2023/02/09 11:25:32;;;;;;;;;;;;;;;;;;4964398;28;19913;-66
2023/02/09 11:27:58;;;;;;;;;;;;;;;;;;4984282;28;19917;-65
2023/02/09 11:30:24;;;;;;;;;;;;;;;;;;4961336;28;20268;-66
2023/02/09 11:32:50;;;;;;;;;;;;;;;;;;4981883;28;19909;-66
2023/02/09 11:35:17;;;;;;;;;;;;;;;;;;4960541;28;19952;-66
2023/02/09 11:37:43;;;;;;;;;;;;;;;;;;4980998;28;19917;-66
2023/02/09 11:40:09;;;;;;;;;;;;;;;;;;4978459;28;19920;-66
2023/02/09 11:42:44;;;;;;;;;;;;;;;;;;4982507;28;19920;-66
2023/02/09 11:45:10;;;;;;;;;;;;;;;;;;4977741;28;19921;-66
2023/02/09 11:47:36;;;;;;;;;;;;;;;;;;4980332;28;19929;-66
2023/02/09 11:50:02;;;;;;;;;;;;;;;;;;4981934;28;20291;-66
2023/02/09 11:52:28;;;;;;;;;;;;;;;;;;4979576;28;19927;-66
2023/02/09 11:54:54;;;;;;;;;;;;;;;;;;4981857;28;19913;-66
2023/02/09 11:57:20;;;;;;;;;;;;;;;;;;4981096;28;19973;-66
2023/02/09 11:59:46;;;;;;;;;;;;;;;;;;4964124;28;19913;-66
2023/02/09 12:02:12;;;;;;;;;;;;;;;;;;4978543;28;19949;-66
2023/02/09 12:04:38;;;;;;;;;;;;;;;;;;4981889;28;20016;-66
2023/02/09 12:07:04;;;;;;;;;;;;;;;;;;4982101;28;19917;-66
2023/02/09 12:09:30;;;;;;;;;;;;;;;;;;4979719;28;19973;-66
2023/02/09 12:11:56;;;;;;;;;;;;;;;;;;4981606;28;20391;-66
2023/02/09 12:14:22;;;;;;;;;;;;;;;;;;4958554;28;19914;-66
2023/02/09 12:16:48;;;;;;;;;;;;;;;;;;4981491;28;20404;-66
2023/02/09 12:19:14;;;;;;;;;;;;;;;;;;4979650;28;19921;-67
2023/02/09 12:21:42;;;;;;;;;;;;;;;;;;4980638;28;19926;-66
2023/02/09 12:24:08;;;;;;;;;;;;;;;;;;4981291;28;19924;-66
2023/02/09 12:26:34;;;;;;;;;;;;;;;;;;4986225;28;20625;-66
2023/02/09 12:29:02;;;;;;;;;;;;;;;;;;4986327;28;19924;-66
2023/02/09 12:31:28;;;;;;;;;;;;;;;;;;4958232;28;19917;-66
2023/02/09 12:33:54;;;;;;;;;;;;;;;;;;4984088;28;20028;-68
2023/02/09 12:36:20;;;;;;;;;;;;;;;;;;4983029;28;20596;-66
2023/02/09 12:38:46;;;;;;;;;;;;;;;;;;4985686;28;19929;-65
2023/02/09 12:41:12;;;;;;;;;;;;;;;;;;4964623;28;19914;-66
2023/02/09 12:43:38;;;;;;;;;;;;;;;;;;4985489;28;19921;-66
2023/02/09 12:46:04;;;;;;;;;;;;;;;;;;4986661;28;19913;-67
2023/02/09 12:48:30;;;;;;;;;;;;;;;;;;4963554;28;20467;-66
2023/02/09 12:50:56;;;;;;;;;;;;;;;;;;4984612;28;20403;-67
2023/02/09 12:53:22;;;;;;;;;;;;;;;;;;4979107;28;19992;-67
2023/02/09 12:55:48;;;;;;;;;;;;;;;;;;4965162;28;19967;-69
2023/02/09 12:58:14;;;;;;;;;;;;;;;;;;4978249;28;20422;-67
2023/02/09 13:00:40;;;;;;;;;;;;;;;;;;4981151;28;19913;-66
2023/02/09 13:03:06;;;;;;;;;;;;;;;;;;4979140;28;20401;-66
2023/02/09 13:05:32;;;;;;;;;;;;;;;;;;4965181;28;20409;-66
2023/02/09 13:07:58;;;;;;;;;;;;;;;;;;4984203;28;19917;-68
2023/02/09 13:10:24;;;;;;;;;;;;;;;;;;4980827;28;19960;-68
2023/02/09 13:12:50;;;;;;;;;;;;;;;;;;4966124;28;19996;-67
2023/02/09 13:15:16;;;;;;;;;;;;;;;;;;4978169;28;20394;-67
2023/02/09 13:17:42;;;;;;;;;;;;;;;;;;4982358;28;19932;-67
2023/02/09 13:20:08;;;;;;;;;;;;;;;;;;4962070;28;20391;-67
2023/02/09 13:22:34;;;;;;;;;;;;;;;;;;4984103;28;20155;-66
2023/02/09 13:25:00;;;;;;;;;;;;;;;;;;4984109;28;20144;-67
2023/02/09 13:27:26;;;;;;;;;;;;;;;;;;4980983;28;21238;-66
2023/02/09 13:29:52;;;;;;;;;;;;;;;;;;4982423;28;19914;-66
2023/02/09 13:32:19;;;;;;;;;;;;;;;;;;4979936;28;19909;-65
2023/02/09 13:34:45;;;;;;;;;;;;;;;;;;4966926;28;19917;-66
2023/02/09 13:37:11;;;;;;;;;;;;;;;;;;4979491;28;19921;-65
2023/02/09 13:39:37;;;;;;;;;;;;;;;;;;4983664;28;20348;-66
2023/02/09 13:42:03;;;;;;;;;;;;;;;;;;4966201;28;20461;-66
2023/02/09 13:44:29;;;;;;;;;;;;;;;;;;4977080;28;19917;-66
2023/02/09 13:46:55;;;;;;;;;;;;;;;;;;4983209;28;20004;-66
2023/02/09 13:49:21;;;;;;;;;;;;;;;;;;4979542;28;20615;-67
2023/02/09 13:51:47;;;;;;;;;;;;;;;;;;4962766;28;19917;-66
2023/02/09 13:54:13;;;;;;;;;;;;;;;;;;4963310;28;19967;-66
2023/02/09 13:56:40;;;;;;;;;;;;;;;;;;4965056;28;19921;-66
2023/02/09 13:59:06;;;;;;;;;;;;;;;;;;4981467;28;19917;-67
2023/02/09 14:01:32;;;;;;;;;;;;;;;;;;4964950;28;19924;-66
2023/02/09 14:03:58;;;;;;;;;;;;;;;;;;4965808;28;20271;-66
2023/02/09 14:06:24;;;;;;;;;;;;;;;;;;4982468;28;19921;-65
2023/02/09 14:08:50;;;;;;;;;;;;;;;;;;4964828;28;19917;-66
2023/02/09 14:11:16;;;;;;;;;;;;;;;;;;4980670;28;20225;-66
2023/02/09 14:13:42;;;;;;;;;;;;;;;;;;4982830;28;19949;-66
2023/02/09 14:16:08;;;;;;;;;;;;;;;;;;4981923;28;20028;-65
2023/02/09 14:18:34;;;;;;;;;;;;;;;;;;4966025;28;19928;-65
2023/02/09 14:21:00;;;;;;;;;;;;;;;;;;4966491;28;19913;-66
2023/02/09 14:23:31;;;;;;;;;;;;;;;;;;4981287;28;22091;-65
2023/02/09 14:25:57;;;;;;;;;;;;;;;;;;4982016;28;20038;-66
2023/02/09 14:28:23;;;;;;;;;;;;;;;;;;4978899;28;20024;-66
2023/02/09 14:30:49;;;;;;;;;;;;;;;;;;4982349;28;20640;-66
2023/02/09 14:33:15;;;;;;;;;;;;;;;;;;4979707;28;19951;-66
2023/02/09 14:35:41;;;;;;;;;;;;;;;;;;4982953;28;19913;-66
2023/02/09 14:38:07;;;;;;;;;;;;;;;;;;4980946;28;20291;-66
2023/02/09 14:40:33;;;;;;;;;;;;;;;;;;4981073;28;19917;-66
2023/02/09 14:42:59;;;;;;;;;;;;;;;;;;4961376;28;19917;-66
2023/02/09 14:45:25;;;;;;;;;;;;;;;;;;4979023;28;20799;-65
2023/02/09 14:47:51;;;;;;;;;;;;;;;;;;4981026;28;19921;-66
2023/02/09 14:50:17;;;;;;;;;;;;;;;;;;4978000;28;19913;-66
2023/02/09 14:52:43;;;;;;;;;;;;;;;;;;4983649;28;19913;-67
2023/02/09 14:55:09;;;;;;;;;;;;;;;;;;4962592;28;20002;-65
2023/02/09 14:57:35;;;;;;;;;;;;;;;;;;4982214;28;20019;-65
2023/02/09 15:00:01;;;;;;;;;;;;;;;;;;4980475;28;19913;-65
2023/02/09 15:02:27;;;;;;;;;;;;;;;;;;4978986;28;20785;-67
2023/02/09 15:04:53;;;;;;;;;;;;;;;;;;4981523;28;20015;-65
2023/02/09 15:07:19;;;;;;;;;;;;;;;;;;4978614;28;20015;-65
2023/02/09 15:09:45;;;;;;;;;;;;;;;;;;4979281;28;19913;-65
2023/02/09 15:12:12;;;;;;;;;;;;;;;;;;4976915;28;19959;-65
2023/02/09 15:14:38;;;;;;;;;;;;;;;;;;4963996;28;19957;-65
2023/02/09 15:17:04;;;;;;;;;;;;;;;;;;4982975;28;19929;-64
2023/02/09 15:19:30;;;;;;;;;;;;;;;;;;4979708;28;20010;-64
2023/02/09 15:21:56;;;;;;;;;;;;;;;;;;4961310;28;20032;-67
2023/02/09 15:24:22;;;;;;;;;;;;;;;;;;4958920;28;20435;-65
2023/02/09 15:26:48;;;;;;;;;;;;;;;;;;4983933;28;19910;-67
2023/02/09 15:29:14;;;;;;;;;;;;;;;;;;4960834;28;19956;-65
2023/02/09 15:31:40;;;;;;;;;;;;;;;;;;4983380;28;20465;-65
2023/02/09 15:34:06;;;;;;;;;;;;;;;;;;4981903;28;20000;-65
2023/02/09 15:36:33;;;;;;;;;;;;;;;;;;4963741;28;19920;-65
2023/02/09 15:38:59;;;;;;;;;;;;;;;;;;4980374;28;19917;-65
2023/02/09 15:49:39;;;;;;;;;;;;;;;;;;4979714;28;19991;-65
2023/02/09 15:52:05;;;;;;;;;;;;;;;;;;4979335;28;20356;-65
2023/02/09 15:54:31;;;;;;;;;;;;;;;;;;4977422;28;19921;-65
2023/02/09 15:56:57;;;;;;;;;;;;;;;;;;4985848;28;19913;-65
2023/02/09 15:59:23;;;;;;;;;;;;;;;;;;4981061;28;20114;-65
2023/02/09 16:01:49;;;;;;;;;;;;;;;;;;4986294;28;20205;-66
2023/02/09 16:04:15;;;;;;;;;;;;;;;;;;4980469;28;20316;-64
2023/02/09 16:06:42;;;;;;;;;;;;;;;;;;4983066;28;20358;-64
2023/02/09 16:09:08;;;;;;;;;;;;;;;;;;4982888;28;19965;-64
2023/02/09 16:11:34;;;;;;;;;;;;;;;;;;4986341;28;20300;-64
2023/02/09 16:14:00;;;;;;;;;;;;;;;;;;4985703;28;19925;-66
2023/02/09 16:16:26;;;;;;;;;;;;;;;;;;4963389;28;19932;-64
2023/02/09 16:18:52;;;;;;;;;;;;;;;;;;4984622;28;20362;-64
2023/02/09 16:21:18;;;;;;;;;;;;;;;;;;4963278;28;19916;-64
2023/02/09 16:23:44;;;;;;;;;;;;;;;;;;4966262;28;19913;-65
2023/02/09 16:26:10;;;;;;;;;;;;;;;;;;4965704;28;20119;-68
2023/02/09 16:28:36;;;;;;;;;;;;;;;;;;4984903;28;20584;-65
2023/02/09 16:31:02;;;;;;;;;;;;;;;;;;4982999;28;21447;-65
2023/02/09 16:33:28;;;;;;;;;;;;;;;;;;4983262;28;20387;-65
2023/02/09 16:35:54;;;;;;;;;;;;;;;;;;4986255;28;19913;-66
2023/02/09 16:38:21;;;;;;;;;;;;;;;;;;4982939;28;19913;-65
2023/02/09 16:40:47;;;;;;;;;;;;;;;;;;4984309;28;19913;-65
2023/02/09 16:43:13;;;;;;;;;;;;;;;;;;4981513;28;19913;-65
2023/02/09 16:45:39;;;;;;;;;;;;;;;;;;4961887;28;20294;-65
2023/02/09 16:48:05;;;;;;;;;;;;;;;;;;4974873;28;20372;-65
2023/02/09 16:50:31;;;;;;;;;;;;;;;;;;4972747;28;19921;-65
2023/02/09 16:52:57;;;;;;;;;;;;;;;;;;4978601;28;20531;-65